createdAt,value
2018-01-19T00:01:20.007Z,1.70
2018-01-19T00:03:47.462Z,1.60
2018-01-19T00:06:14.906Z,1.70
2018-01-19T00:08:42.350Z,2.17
2018-01-19T00:11:09.787Z,1.67
2018-01-19T00:13:37.230Z,1.77
2018-01-19T00:16:04.679Z,2.03
2018-01-19T00:18:32.115Z,1.60
2018-01-19T00:20:59.563Z,2.03
2018-01-19T00:23:27.003Z,2.70
2018-01-19T00:25:55.211Z,2.17
2018-01-19T00:28:22.650Z,1.53
2018-01-19T00:30:50.101Z,1.97
2018-01-19T00:33:17.746Z,1.60
2018-01-19T00:35:45.955Z,1.77
2018-01-19T00:38:13.411Z,1.70
2018-01-19T00:40:40.859Z,1.83
2018-01-19T00:43:08.294Z,1.90
2018-01-19T00:45:36.502Z,1.67
2018-01-19T00:48:03.958Z,2.20
2018-01-19T00:50:32.067Z,2.13
2018-01-19T00:52:59.511Z,2.03
2018-01-19T00:55:26.962Z,1.80
2018-01-19T00:57:54.398Z,1.93
2018-01-19T01:00:21.850Z,2.10
2018-01-19T01:02:49.305Z,1.70
2018-01-19T01:05:16.743Z,2.13
2018-01-19T01:07:44.178Z,2.70
2018-01-19T01:10:12.398Z,2.20
2018-01-19T01:12:39.834Z,2.10
2018-01-19T01:15:07.283Z,2.90
2018-01-19T01:17:34.718Z,2.70
2018-01-19T01:20:02.934Z,2.00
2018-01-19T01:22:30.390Z,2.27
2018-01-19T01:24:57.848Z,2.13
2018-01-19T01:27:25.283Z,2.43
2018-01-19T01:29:52.722Z,2.30
2018-01-19T01:32:20.936Z,2.10
2018-01-19T01:34:48.391Z,2.20
2018-01-19T01:37:15.830Z,2.30
2018-01-19T01:39:43.270Z,1.97
2018-01-19T01:42:11.502Z,1.97
2018-01-19T01:44:38.964Z,1.93
2018-01-19T01:47:06.412Z,2.37
2018-01-19T01:49:33.864Z,1.77
2018-01-19T01:52:01.304Z,1.87
2018-01-19T01:54:28.738Z,1.50
2018-01-19T01:56:56.182Z,1.67
2018-01-19T01:59:24.387Z,1.50
2018-01-19T02:01:51.848Z,1.20
2018-01-19T02:04:19.287Z,1.23
2018-01-19T02:06:46.736Z,1.60
2018-01-19T02:09:14.178Z,1.53
2018-01-19T02:11:42.400Z,1.13
2018-01-19T02:14:09.847Z,1.20
2018-01-19T02:16:37.294Z,0.93
2018-01-19T02:19:04.738Z,1.20
2018-01-19T02:21:32.182Z,1.00
2018-01-19T02:23:59.619Z,0.90
2018-01-19T02:26:27.066Z,1.30
2018-01-19T02:28:54.511Z,1.20
2018-01-19T02:31:21.966Z,1.27
2018-01-19T02:33:49.406Z,1.53
2018-01-19T02:36:16.863Z,0.90
2018-01-19T02:38:44.311Z,0.90
2018-01-19T02:41:11.755Z,0.90
2018-01-19T02:43:39.187Z,0.90
2018-01-19T02:46:06.631Z,0.93
2018-01-19T02:48:34.839Z,0.90
2018-01-19T02:51:02.283Z,0.70
2018-01-19T02:53:29.722Z,0.50
2018-01-19T02:55:57.927Z,0.67
2018-01-19T02:58:25.384Z,0.67
2018-01-19T03:00:52.834Z,0.50
2018-01-19T03:03:20.279Z,0.57
2018-01-19T03:05:47.726Z,0.50
2018-01-19T03:08:15.944Z,0.70
2018-01-19T03:10:43.927Z,1.03
2018-01-19T03:13:11.374Z,0.63
2018-01-19T03:15:38.862Z,0.63
2018-01-19T03:18:06.316Z,0.90
2018-01-19T03:20:33.760Z,0.60
2018-01-19T03:23:01.207Z,0.60
2018-01-19T03:25:28.649Z,0.90
2018-01-19T03:27:56.094Z,0.70
2018-01-19T03:30:23.756Z,0.70
2018-01-19T03:32:51.263Z,0.70
2018-01-19T03:35:19.479Z,0.70
2018-01-19T03:37:46.934Z,0.70
2018-01-19T03:40:14.392Z,0.70
2018-01-19T03:42:41.850Z,0.63
2018-01-19T03:45:09.303Z,0.90
2018-01-19T03:47:36.762Z,1.07
2018-01-19T03:50:04.215Z,0.90
2018-01-19T03:52:31.671Z,1.03
2018-01-19T03:54:59.127Z,0.93
2018-01-19T03:57:26.586Z,0.80
2018-01-19T03:59:54.047Z,0.93
2018-01-19T04:02:21.498Z,1.00
2018-01-19T04:04:48.963Z,1.30
2018-01-19T04:07:16.418Z,1.13
2018-01-19T04:09:44.087Z,1.20
2018-01-19T04:12:11.567Z,1.10
2018-01-19T04:14:39.248Z,1.27
2018-01-19T04:17:06.683Z,1.43
2018-01-19T04:19:34.347Z,1.40
2018-01-19T04:22:01.800Z,0.90
2018-01-19T04:24:29.475Z,0.97
2018-01-19T04:26:56.991Z,1.27
2018-01-19T04:29:24.515Z,1.17
2018-01-19T04:31:52.007Z,1.27
2018-01-19T04:34:19.463Z,1.13
2018-01-19T04:36:46.915Z,1.00
2018-01-19T04:39:14.375Z,1.53
2018-01-19T04:41:41.818Z,1.17
2018-01-19T04:44:09.489Z,1.57
2018-01-19T04:46:36.942Z,1.80
2018-01-19T04:49:04.409Z,1.30
2018-01-19T04:51:31.893Z,1.07
2018-01-19T04:53:59.431Z,1.37
2018-01-19T04:56:26.896Z,1.93
2018-01-19T04:58:54.399Z,1.57
2018-01-19T05:01:21.870Z,1.67
2018-01-19T05:03:49.363Z,1.40
2018-01-19T05:06:16.814Z,1.37
2018-01-19T05:08:44.270Z,1.50
2018-01-19T05:11:11.728Z,1.30
2018-01-19T05:13:39.178Z,1.30
2018-01-19T05:16:06.635Z,1.63
2018-01-19T05:18:34.091Z,1.53
2018-01-19T05:21:01.551Z,2.30
2018-01-19T05:23:29.218Z,1.63
2018-01-19T05:25:56.675Z,2.03
2018-01-19T05:28:24.123Z,1.63
2018-01-19T05:30:51.576Z,1.80
2018-01-19T05:33:19.015Z,1.70
2018-01-19T05:35:46.467Z,2.17
2018-01-19T05:38:13.923Z,1.63
2018-01-19T05:40:41.378Z,1.67
2018-01-19T05:43:08.823Z,1.80
2018-01-19T05:45:36.265Z,1.83
2018-01-19T05:48:03.706Z,1.87
2018-01-19T05:50:32.262Z,2.20
2018-01-19T05:52:59.695Z,1.90
2018-01-19T05:55:27.146Z,1.93
2018-01-19T05:57:54.596Z,1.80
2018-01-19T06:00:22.039Z,2.00
2018-01-19T06:02:49.492Z,1.87
2018-01-19T06:05:16.942Z,1.97
2018-01-19T06:07:44.378Z,1.83
2018-01-19T06:10:12.599Z,2.10
2018-01-19T06:12:40.038Z,2.40
2018-01-19T06:15:07.484Z,2.17
2018-01-19T06:17:35.708Z,1.43
2018-01-19T06:20:03.163Z,1.63
2018-01-19T06:22:30.618Z,1.57
2018-01-19T06:24:58.078Z,2.07
2018-01-19T06:27:25.536Z,1.67
2018-01-19T06:29:52.978Z,1.80
2018-01-19T06:32:20.420Z,1.33
2018-01-19T06:34:47.887Z,2.07
2018-01-19T06:37:15.330Z,2.13
2018-01-19T06:39:42.776Z,1.53
2018-01-19T06:42:10.231Z,1.83
2018-01-19T06:44:37.672Z,2.50
2018-01-19T06:47:05.892Z,1.43
2018-01-19T06:49:33.335Z,1.87
2018-01-19T06:52:00.808Z,1.60
2018-01-19T06:54:28.256Z,2.00
2018-01-19T06:56:55.718Z,2.07
2018-01-19T06:59:23.179Z,1.77
2018-01-19T07:01:50.630Z,2.60
2018-01-19T07:04:18.086Z,1.97
2018-01-19T07:06:45.542Z,1.70
2018-01-19T07:09:12.998Z,1.80
2018-01-19T07:11:40.551Z,2.00
2018-01-19T07:14:08.018Z,2.20
2018-01-19T07:16:35.487Z,2.00
2018-01-19T07:19:02.943Z,1.77
2018-01-19T07:21:30.404Z,2.00
2018-01-19T07:23:57.938Z,2.00
2018-01-19T07:26:25.404Z,1.70
2018-01-19T07:28:52.867Z,1.70
2018-01-19T07:31:20.317Z,1.63
2018-01-19T07:33:47.766Z,1.83
2018-01-19T07:36:15.214Z,1.40
2018-01-19T07:38:42.681Z,1.63
2018-01-19T07:41:10.127Z,2.10
2018-01-19T07:43:37.579Z,1.60
2018-01-19T07:46:05.023Z,1.83
2018-01-19T07:48:32.480Z,1.37
2018-01-19T07:51:00.698Z,1.70
2018-01-19T07:53:28.371Z,1.53
2018-01-19T07:55:55.819Z,1.87
2018-01-19T07:58:23.272Z,1.70
2018-01-19T08:00:50.707Z,1.70
2018-01-19T08:03:18.159Z,1.40
2018-01-19T08:05:45.616Z,1.87
2018-01-19T08:08:13.079Z,1.70
2018-01-19T08:10:40.535Z,1.60
2018-01-19T08:13:07.975Z,1.40
2018-01-19T08:15:35.423Z,2.00
2018-01-19T08:18:02.878Z,2.10
2018-01-19T08:20:30.732Z,1.97
2018-01-19T08:22:58.167Z,1.80
2018-01-19T08:25:26.387Z,1.73
2018-01-19T08:27:53.851Z,1.90
2018-01-19T08:30:21.303Z,1.67
2018-01-19T08:32:48.776Z,1.90
2018-01-19T08:35:16.218Z,2.07
2018-01-19T08:37:43.683Z,1.63
2018-01-19T08:40:11.138Z,1.80
2018-01-19T08:42:38.595Z,1.87
2018-01-19T08:45:06.059Z,2.10
2018-01-19T08:47:33.507Z,1.90
2018-01-19T08:50:00.955Z,1.87
2018-01-19T08:52:28.407Z,1.90
2018-01-19T08:54:55.857Z,2.10
2018-01-19T08:57:23.311Z,1.50
2018-01-19T08:59:50.775Z,1.57
2018-01-19T09:02:18.215Z,1.70
2018-01-19T09:04:45.668Z,1.80
2018-01-19T09:07:13.127Z,1.90
2018-01-19T09:09:40.582Z,2.50
2018-01-19T09:12:08.040Z,1.60
2018-01-19T09:14:35.492Z,1.67
2018-01-19T09:17:02.931Z,1.43
2018-01-19T09:19:30.382Z,1.80
2018-01-19T09:21:57.819Z,1.60
2018-01-19T09:24:26.039Z,1.87
2018-01-19T09:26:53.901Z,1.90
2018-01-19T09:29:21.351Z,1.70
2018-01-19T09:31:48.790Z,1.70
2018-01-19T09:34:16.236Z,1.77
2018-01-19T09:36:44.442Z,1.57
2018-01-19T09:39:11.895Z,1.80
2018-01-19T09:41:39.351Z,1.90
2018-01-19T09:44:06.808Z,1.50
2018-01-19T09:46:34.250Z,1.53
2018-01-19T09:49:01.699Z,1.50
2018-01-19T09:51:29.139Z,1.47
2018-01-19T09:53:57.352Z,1.80
2018-01-19T09:56:24.810Z,1.70
2018-01-19T09:58:52.263Z,1.30
2018-01-19T10:01:19.709Z,1.30
2018-01-19T10:03:47.139Z,1.20
2018-01-19T10:06:15.359Z,1.73
2018-01-19T10:08:42.802Z,1.67
2018-01-19T10:11:10.263Z,1.73
2018-01-19T10:13:37.722Z,1.23
2018-01-19T10:16:05.170Z,1.73
2018-01-19T10:18:32.615Z,1.30
2018-01-19T10:21:00.078Z,1.30
2018-01-19T10:23:27.519Z,1.30
2018-01-19T10:25:54.977Z,1.60
2018-01-19T10:28:22.418Z,1.40
2018-01-19T10:30:50.631Z,1.60
2018-01-19T10:33:18.086Z,1.60
2018-01-19T10:35:45.536Z,1.10
2018-01-19T10:38:12.979Z,1.40
2018-01-19T10:40:40.430Z,1.60
2018-01-19T10:43:07.878Z,1.63
2018-01-19T10:45:36.103Z,1.77
2018-01-19T10:48:03.539Z,1.63
2018-01-19T10:50:31.539Z,2.00
2018-01-19T10:52:58.983Z,1.70
2018-01-19T10:55:26.450Z,1.33
2018-01-19T10:57:53.906Z,1.60
2018-01-19T11:00:21.370Z,1.30
2018-01-19T11:02:48.827Z,1.40
2018-01-19T11:05:16.275Z,1.73
2018-01-19T11:07:43.722Z,1.97
2018-01-19T11:10:11.174Z,1.50
2018-01-19T11:12:38.622Z,1.43
2018-01-19T11:15:06.069Z,1.70
2018-01-19T11:17:33.522Z,2.00
2018-01-19T11:20:00.978Z,1.70
2018-01-19T11:22:28.431Z,2.13
2018-01-19T11:24:55.891Z,1.77
2018-01-19T11:27:23.346Z,1.30
2018-01-19T11:29:50.803Z,1.20
2018-01-19T11:32:18.260Z,2.03
2018-01-19T11:34:45.714Z,1.67
2018-01-19T11:37:13.174Z,1.57
2018-01-19T11:39:40.611Z,1.80
2018-01-19T11:42:08.070Z,1.63
2018-01-19T11:44:35.543Z,1.73
2018-01-19T11:47:02.994Z,1.80
2018-01-19T11:49:30.446Z,1.90
2018-01-19T11:51:57.908Z,2.30
2018-01-19T11:54:25.343Z,2.13
2018-01-19T11:56:52.791Z,2.00
2018-01-19T11:59:20.231Z,1.80
2018-01-19T12:01:48.462Z,1.97
2018-01-19T12:04:15.925Z,2.83
2018-01-19T12:06:43.372Z,3.00
2018-01-19T12:09:10.837Z,2.37
2018-01-19T12:11:38.283Z,1.90
2018-01-19T12:14:05.735Z,2.00
2018-01-19T12:16:33.195Z,1.80
2018-01-19T12:19:00.639Z,1.63
2018-01-19T12:21:28.132Z,1.77
2018-01-19T12:23:59.516Z,2.10
2018-01-19T12:26:27.720Z,2.70
2018-01-19T12:28:55.178Z,2.00
2018-01-19T12:31:22.630Z,2.43
2018-01-19T12:33:50.090Z,2.67
2018-01-19T12:36:17.542Z,1.80
2018-01-19T12:38:44.998Z,8.27
2018-01-19T12:41:12.455Z,2.43
2018-01-19T12:43:39.911Z,1.87
2018-01-19T12:46:07.352Z,3.13
2018-01-19T12:48:34.816Z,1.70
2018-01-19T12:51:02.247Z,1.87
2018-01-19T12:53:29.715Z,2.00
2018-01-19T12:55:57.153Z,1.10
2018-01-19T12:58:25.363Z,1.00
2018-01-19T13:00:52.794Z,1.50
2018-01-19T13:03:20.238Z,1.10
2018-01-19T13:05:48.451Z,1.33
2018-01-19T13:08:15.903Z,1.30
2018-01-19T13:10:43.339Z,1.20
2018-01-19T13:13:10.791Z,1.80
2018-01-19T13:15:38.235Z,1.80
2018-01-19T13:18:05.682Z,1.60
2018-01-19T13:20:33.123Z,1.47
2018-01-19T13:23:00.575Z,1.40
2018-01-19T13:25:28.006Z,1.20
2018-01-19T13:27:55.451Z,1.40
2018-01-19T13:30:22.886Z,1.53
2018-01-19T13:32:50.326Z,1.50
2018-01-19T13:35:18.547Z,1.57
2018-01-19T13:37:45.978Z,1.70
2018-01-19T13:40:13.448Z,1.70
2018-01-19T13:42:40.883Z,2.27
2018-01-19T13:45:08.326Z,1.50
2018-01-19T13:47:36.531Z,2.30
2018-01-19T13:50:03.987Z,1.57
2018-01-19T13:52:31.430Z,1.20
2018-01-19T13:54:58.875Z,2.00
2018-01-19T13:57:26.315Z,1.57
2018-01-19T13:59:53.763Z,1.20
2018-01-19T14:02:21.203Z,1.47
2018-01-19T14:04:48.663Z,1.47
2018-01-19T14:07:16.102Z,2.23
2018-01-19T14:09:43.548Z,1.63
2018-01-19T14:12:10.992Z,1.30
2018-01-19T14:14:38.523Z,1.40
2018-01-19T14:17:06.735Z,1.77
2018-01-19T14:19:34.183Z,1.33
2018-01-19T14:22:01.793Z,1.70
2018-01-19T14:24:30.022Z,2.10
2018-01-19T14:26:57.467Z,1.53
2018-01-19T14:29:24.920Z,1.70
2018-01-19T14:31:52.352Z,1.87
2018-01-19T14:34:19.849Z,1.50
2018-01-19T14:36:48.011Z,2.37
2018-01-19T14:39:15.469Z,1.37
2018-01-19T14:41:42.916Z,1.90
2018-01-19T14:44:10.354Z,1.90
2018-01-19T14:46:37.790Z,2.07
2018-01-19T14:49:05.230Z,1.80
2018-01-19T14:51:32.682Z,1.40
2018-01-19T14:54:00.127Z,2.10
2018-01-19T14:56:27.578Z,2.53
2018-01-19T14:58:55.015Z,2.40
2018-01-19T15:01:22.520Z,2.43
2018-01-19T15:03:49.967Z,2.80
2018-01-19T15:06:17.418Z,2.67
2018-01-19T15:08:44.851Z,2.70
2018-01-19T15:11:12.300Z,2.87
2018-01-19T15:13:39.751Z,2.90
2018-01-19T15:16:07.206Z,2.37
2018-01-19T15:18:34.686Z,2.77
2018-01-19T15:21:02.139Z,2.87
2018-01-19T15:23:29.587Z,5.00
2018-01-19T15:25:57.060Z,1.93
2018-01-19T15:28:24.514Z,1.93
2018-01-19T15:30:51.966Z,2.17
2018-01-19T15:33:19.419Z,2.00
2018-01-19T15:35:46.874Z,1.73
2018-01-19T15:38:14.314Z,2.50
2018-01-19T15:40:41.779Z,1.50
2018-01-19T15:43:09.223Z,2.00
2018-01-19T15:45:36.680Z,3.13
2018-01-19T15:48:04.136Z,4.17
2018-01-19T15:50:31.591Z,4.10
2018-01-19T15:52:59.019Z,1.70
2018-01-19T15:55:27.239Z,1.33
2018-01-19T15:57:54.679Z,2.57
2018-01-19T16:00:22.182Z,1.80
2018-01-19T16:02:49.611Z,2.10
2018-01-19T16:05:17.062Z,4.90
2018-01-19T16:07:44.627Z,2.90
2018-01-19T16:10:12.075Z,2.93
2018-01-19T16:12:39.541Z,2.60
2018-01-19T16:15:06.989Z,4.07
2018-01-19T16:17:34.431Z,3.20
2018-01-19T16:20:01.883Z,2.70
2018-01-19T16:22:30.099Z,3.07
2018-01-19T16:24:57.546Z,2.50
2018-01-19T16:27:25.014Z,2.53
2018-01-19T16:29:52.462Z,3.77
2018-01-19T16:32:19.918Z,5.07
2018-01-19T16:34:47.374Z,3.10
2018-01-19T16:37:14.848Z,5.03
2018-01-19T16:39:42.291Z,2.80
2018-01-19T16:42:09.740Z,3.60
2018-01-19T16:44:37.184Z,4.70
2018-01-19T16:47:04.635Z,3.63
2018-01-19T16:49:49.184Z,4.03
2018-01-19T16:52:16.632Z,3.20
2018-01-19T16:54:44.071Z,3.53
2018-01-19T16:57:11.716Z,3.50
2018-01-19T16:59:41.293Z,5.10
2018-01-19T17:02:10.488Z,4.60
2018-01-19T17:04:38.030Z,4.63
2018-01-19T17:07:05.486Z,6.27
2018-01-19T17:09:32.964Z,7.57
2018-01-19T17:12:00.454Z,30.87
2018-01-19T17:14:28.679Z,7.23
2018-01-19T17:16:56.143Z,6.40
2018-01-19T17:19:23.603Z,5.23
2018-01-19T17:21:51.059Z,4.40
2018-01-19T17:24:18.514Z,3.67
2018-01-19T17:26:45.975Z,3.50
2018-01-19T17:29:13.427Z,4.17
2018-01-19T17:31:40.882Z,5.27
2018-01-19T17:34:08.335Z,4.53
2018-01-19T17:36:35.790Z,6.57
2018-01-19T17:39:03.364Z,6.30
2018-01-19T17:41:31.645Z,6.10
2018-01-19T17:43:59.115Z,7.33
2018-01-19T17:46:27.442Z,7.80
2018-01-19T17:48:54.955Z,7.60
2018-01-19T17:51:23.187Z,4.50
2018-01-19T17:53:50.649Z,4.77
2018-01-19T17:56:18.308Z,4.73
2018-01-19T17:58:45.756Z,5.90
2018-01-19T18:01:13.436Z,6.20
2018-01-19T18:03:40.896Z,4.37
2018-01-19T18:06:08.347Z,5.10
2018-01-19T18:08:35.814Z,4.53
2018-01-19T18:11:03.270Z,5.17
2018-01-19T18:13:30.729Z,5.33
2018-01-19T18:15:58.168Z,6.27
2018-01-19T18:18:25.622Z,7.03
2018-01-19T18:20:53.078Z,7.53
2018-01-19T18:23:20.551Z,7.70
2018-01-19T18:25:47.990Z,6.63
2018-01-19T18:28:15.453Z,8.13
2018-01-19T18:30:42.923Z,10.07
2018-01-19T18:33:10.374Z,8.90
2018-01-19T18:35:37.823Z,8.87
2018-01-19T18:38:05.292Z,9.77
2018-01-19T18:40:32.743Z,10.90
2018-01-19T18:43:00.199Z,11.13
2018-01-19T18:45:27.662Z,13.00
2018-01-19T18:47:55.895Z,13.37
2018-01-19T18:50:23.358Z,12.17
2018-01-19T18:52:50.806Z,12.13
2018-01-19T18:55:18.314Z,15.73
2018-01-19T18:57:45.767Z,16.43
2018-01-19T19:00:14.007Z,23.40
2018-01-19T19:02:41.483Z,20.97
2018-01-19T19:05:08.942Z,16.90
2018-01-19T19:07:36.793Z,12.53
2018-01-19T19:10:04.251Z,13.30
2018-01-19T19:12:31.711Z,13.97
2018-01-19T19:14:59.296Z,16.20
2018-01-19T19:17:27.304Z,16.97
2018-01-19T19:19:55.730Z,15.73
2018-01-19T19:22:23.226Z,15.30
2018-01-19T19:24:50.732Z,14.60
2018-01-19T19:27:18.233Z,13.57
2018-01-19T19:29:45.747Z,13.90
2018-01-19T19:32:13.203Z,20.33
2018-01-19T19:34:40.668Z,20.03
2018-01-19T19:37:08.175Z,19.53
2018-01-19T19:39:35.636Z,18.07
2018-01-19T19:42:03.858Z,16.93
2018-01-19T19:44:32.928Z,18.10
2018-01-19T19:47:00.434Z,18.77
2018-01-19T19:49:27.958Z,20.17
2018-01-19T19:51:55.407Z,20.10
2018-01-19T19:54:22.904Z,17.73
2018-01-19T19:56:51.170Z,15.27
2018-01-19T19:59:19.383Z,17.07
2018-01-19T20:01:46.851Z,16.40
2018-01-19T20:04:14.310Z,17.07
2018-01-19T20:06:41.767Z,17.30
2018-01-19T20:09:09.219Z,17.70
2018-01-19T20:11:36.676Z,18.27
2018-01-19T20:14:04.187Z,18.13
2018-01-19T20:16:32.461Z,17.57
2018-01-19T20:19:00.666Z,18.67
2018-01-19T20:21:28.172Z,20.83
2018-01-19T20:23:55.670Z,19.07
2018-01-19T20:26:23.594Z,19.97
2018-01-19T20:28:51.051Z,18.90
2018-01-19T20:31:18.545Z,19.90
2018-01-19T20:33:45.980Z,18.50
2018-01-19T20:36:14.259Z,19.97
2018-01-19T20:38:42.529Z,21.07
2018-01-19T20:41:10.763Z,19.63
2018-01-19T20:43:38.218Z,19.33
2018-01-19T20:46:05.698Z,19.17
2018-01-19T20:48:33.199Z,18.33
2018-01-19T20:51:00.646Z,19.27
2018-01-19T20:53:28.141Z,18.77
2018-01-19T20:55:55.603Z,22.23
2018-01-19T20:58:23.107Z,20.80
2018-01-19T21:00:51.382Z,21.93
2018-01-19T21:03:19.645Z,24.00
2018-01-19T21:05:47.862Z,21.80
2018-01-19T21:08:15.382Z,22.60
2018-01-19T21:10:43.661Z,21.47
2018-01-19T21:13:11.892Z,21.67
2018-01-19T21:15:39.339Z,25.03
2018-01-19T21:18:06.858Z,21.83
2018-01-19T21:20:34.354Z,21.80
2018-01-19T21:23:01.857Z,21.33
2018-01-19T21:25:30.118Z,21.27
2018-01-19T21:27:57.546Z,21.93
2018-01-19T21:30:25.050Z,23.27
2018-01-19T21:32:53.284Z,22.73
2018-01-19T21:35:20.787Z,21.30
2018-01-19T21:37:48.290Z,26.23
2018-01-19T21:40:16.140Z,26.97
2018-01-19T21:42:43.644Z,26.37
2018-01-19T21:45:11.087Z,27.47
2018-01-19T21:47:38.624Z,27.90
2018-01-19T21:50:06.122Z,26.57
2018-01-19T21:52:33.653Z,28.03
2018-01-19T21:55:01.534Z,25.97
2018-01-19T21:57:28.983Z,28.03
2018-01-19T21:59:56.428Z,25.67
2018-01-19T22:02:23.945Z,23.73
2018-01-19T22:04:51.439Z,23.00
2018-01-19T22:07:18.950Z,24.10
2018-01-19T22:09:47.177Z,23.83
2018-01-19T22:12:14.640Z,24.80
2018-01-19T22:14:42.134Z,25.40
2018-01-19T22:17:10.346Z,23.33
2018-01-19T22:19:37.859Z,25.20
2018-01-19T22:22:06.130Z,24.53
2018-01-19T22:24:34.691Z,25.60
2018-01-19T22:27:02.206Z,25.73
2018-01-19T22:29:29.708Z,25.60
2018-01-19T22:31:57.162Z,24.37
2018-01-19T22:34:24.652Z,23.63
2018-01-19T22:36:53.223Z,21.07
2018-01-19T22:39:21.459Z,20.97
2018-01-19T22:41:48.976Z,19.07
2018-01-19T22:44:16.486Z,19.43
2018-01-19T22:46:43.973Z,18.40
2018-01-19T22:49:12.242Z,20.30
2018-01-19T22:51:40.522Z,20.23
2018-01-19T22:54:08.118Z,20.50
2018-01-19T22:56:35.635Z,16.80
2018-01-19T22:59:05.726Z,14.90
2018-01-19T23:01:33.532Z,15.50
2018-01-19T23:04:01.139Z,14.90
2018-01-19T23:06:28.681Z,14.90
2018-01-19T23:08:56.200Z,14.13
2018-01-19T23:11:23.706Z,11.90
2018-01-19T23:13:51.255Z,10.53
2018-01-19T23:16:19.112Z,10.40
2018-01-19T23:18:46.581Z,9.60
2018-01-19T23:21:14.301Z,11.77
2018-01-19T23:23:42.638Z,11.50
2018-01-19T23:26:10.230Z,11.40
2018-01-19T23:28:38.529Z,9.93
2018-01-19T23:31:06.063Z,10.27
2018-01-19T23:33:34.295Z,10.20
2018-01-19T23:36:01.752Z,9.90
2018-01-19T23:38:29.503Z,9.47
2018-01-19T23:40:56.990Z,10.30
2018-01-19T23:43:24.481Z,9.50
2018-01-19T23:45:52.698Z,9.67
2018-01-19T23:48:20.146Z,6.70
2018-01-19T23:50:47.659Z,6.70
2018-01-19T23:53:15.923Z,5.90
2018-01-19T23:55:44.591Z,4.70
2018-01-19T23:58:12.075Z,4.83
